createdAt,value
2023-03-19T00:02:15.456Z,11.96
2023-03-19T00:04:43.845Z,11.99
2023-03-19T00:07:11.184Z,11.90
2023-03-19T00:09:37.843Z,11.90
2023-03-19T00:12:04.983Z,11.93
2023-03-19T00:14:31.620Z,11.93
2023-03-19T00:16:58.205Z,11.93
2023-03-19T00:19:25.382Z,12.05
2023-03-19T00:21:52.241Z,12.08
2023-03-19T00:24:19.009Z,12.09
2023-03-19T00:26:45.524Z,12.09
2023-03-19T00:29:12.933Z,12.03
2023-03-19T00:31:40.790Z,12.04
2023-03-19T00:34:08.230Z,11.97
2023-03-19T00:36:34.758Z,12.03
2023-03-19T00:39:01.296Z,12.17
2023-03-19T00:41:28.924Z,12.28
2023-03-19T00:43:56.945Z,12.25
2023-03-19T00:46:24.578Z,12.17
2023-03-19T00:48:55.414Z,12.09
2023-03-19T00:51:23.697Z,12.18
2023-03-19T00:53:51.083Z,11.99
2023-03-19T00:56:18.792Z,11.90
2023-03-19T00:58:45.596Z,11.92
2023-03-19T01:01:15.802Z,12.00
2023-03-19T01:03:42.473Z,12.04
2023-03-19T01:06:09.196Z,12.04
2023-03-19T01:08:35.866Z,12.13
2023-03-19T01:11:07.320Z,12.05
2023-03-19T01:13:34.225Z,11.96
2023-03-19T01:16:00.791Z,11.99
2023-03-19T01:18:27.277Z,11.93
2023-03-19T01:20:53.750Z,11.94
2023-03-19T01:23:20.273Z,12.03
2023-03-19T01:25:47.627Z,11.87
2023-03-19T01:28:14.135Z,11.86
2023-03-19T01:30:41.155Z,11.79
2023-03-19T01:33:08.254Z,11.69
2023-03-19T01:35:34.860Z,11.75
2023-03-19T01:38:01.372Z,11.93
2023-03-19T01:40:28.431Z,11.82
2023-03-19T01:43:21.732Z,11.88
2023-03-19T01:45:51.635Z,11.95
2023-03-19T01:48:25.803Z,11.95
2023-03-19T01:50:55.254Z,12.09
2023-03-19T01:53:33.774Z,12.11
2023-03-19T01:56:09.068Z,12.05
2023-03-19T01:58:35.927Z,11.97
2023-03-19T02:01:03.193Z,11.97
2023-03-19T02:03:30.722Z,12.01
2023-03-19T02:05:59.288Z,12.10
2023-03-19T02:08:26.219Z,11.99
2023-03-19T02:10:55.960Z,11.89
2023-03-19T02:13:23.566Z,11.93
2023-03-19T02:15:51.858Z,11.85
2023-03-19T02:18:18.921Z,11.62
2023-03-19T02:20:45.378Z,11.65
2023-03-19T02:23:30.315Z,11.40
2023-03-19T02:26:02.892Z,11.41
2023-03-19T02:28:31.907Z,11.46
2023-03-19T02:30:58.741Z,11.34
2023-03-19T02:33:25.276Z,11.32
2023-03-19T02:35:53.039Z,11.29
2023-03-19T02:38:23.014Z,11.32
2023-03-19T02:40:54.201Z,11.34
2023-03-19T02:43:22.284Z,11.36
2023-03-19T02:45:48.988Z,11.46
2023-03-19T02:48:15.487Z,11.33
2023-03-19T02:50:42.203Z,11.24
2023-03-19T02:53:08.787Z,11.33
2023-03-19T02:55:35.541Z,11.33
2023-03-19T02:58:02.186Z,11.29
2023-03-19T03:00:28.700Z,11.28
2023-03-19T03:02:57.356Z,11.29
2023-03-19T03:05:23.979Z,11.16
2023-03-19T03:07:50.498Z,11.11
2023-03-19T03:10:17.154Z,11.19
2023-03-19T03:12:43.818Z,11.30
2023-03-19T03:15:10.511Z,11.40
2023-03-19T03:17:38.157Z,11.42
2023-03-19T03:20:06.152Z,11.41
2023-03-19T03:22:32.914Z,11.45
2023-03-19T03:24:59.440Z,11.33
2023-03-19T03:27:27.118Z,11.28
2023-03-19T03:29:53.653Z,11.38
2023-03-19T03:32:20.183Z,11.35
2023-03-19T03:34:46.684Z,11.32
2023-03-19T03:37:13.189Z,11.36
2023-03-19T03:39:39.661Z,11.42
2023-03-19T03:42:07.353Z,11.36
2023-03-19T03:44:33.818Z,11.30
2023-03-19T03:47:00.315Z,11.47
2023-03-19T03:49:27.049Z,11.47
2023-03-19T03:51:53.514Z,11.46
2023-03-19T03:54:19.993Z,11.43
2023-03-19T03:56:46.452Z,11.50
2023-03-19T03:59:12.955Z,11.34
2023-03-19T04:01:39.491Z,11.39
2023-03-19T04:04:06.118Z,11.41
2023-03-19T04:06:32.591Z,11.42
2023-03-19T04:08:59.077Z,11.41
2023-03-19T04:11:25.851Z,11.51
2023-03-19T04:13:56.559Z,11.53
2023-03-19T04:16:24.159Z,11.45
2023-03-19T04:18:50.672Z,11.43
2023-03-19T04:21:17.415Z,11.55
2023-03-19T04:23:43.880Z,11.54
2023-03-19T04:26:10.622Z,11.49
2023-03-19T04:28:37.524Z,11.39
2023-03-19T04:31:06.572Z,11.23
2023-03-19T04:33:34.118Z,11.38
2023-03-19T04:36:01.394Z,11.31
2023-03-19T04:38:28.519Z,11.36
2023-03-19T04:40:56.259Z,11.48
2023-03-19T04:43:24.112Z,11.40
2023-03-19T04:45:51.509Z,11.41
2023-03-19T04:48:18.426Z,11.30
2023-03-19T04:50:47.175Z,11.29
2023-03-19T04:53:13.822Z,11.45
2023-03-19T04:55:41.015Z,11.49
2023-03-19T04:58:09.028Z,11.56
2023-03-19T05:00:35.695Z,11.43
2023-03-19T05:03:02.299Z,11.50
2023-03-19T05:05:28.857Z,11.28
2023-03-19T05:07:57.323Z,11.32
2023-03-19T05:10:24.080Z,11.08
2023-03-19T05:12:50.681Z,11.13
2023-03-19T05:15:17.301Z,11.08
2023-03-19T05:17:43.774Z,11.07
2023-03-19T05:20:12.743Z,11.04
2023-03-19T05:22:39.254Z,10.94
2023-03-19T05:25:06.933Z,11.06
2023-03-19T05:27:34.180Z,11.03
2023-03-19T05:30:01.498Z,11.03
2023-03-19T05:32:28.752Z,11.04
2023-03-19T05:34:55.253Z,11.08
2023-03-19T05:37:21.955Z,11.23
2023-03-19T05:39:48.472Z,11.13
2023-03-19T05:42:15.635Z,11.07
2023-03-19T05:44:42.358Z,11.09
2023-03-19T05:47:12.746Z,11.06
2023-03-19T05:49:39.233Z,11.02
2023-03-19T05:52:06.173Z,10.99
2023-03-19T05:54:32.720Z,11.03
2023-03-19T05:56:59.282Z,10.97
2023-03-19T05:59:25.852Z,11.00
2023-03-19T06:01:52.362Z,11.10
2023-03-19T06:04:18.969Z,11.06
2023-03-19T06:06:45.580Z,10.90
2023-03-19T06:09:12.140Z,10.93
2023-03-19T06:11:40.406Z,10.95
2023-03-19T06:14:07.267Z,10.94
2023-03-19T06:16:33.797Z,10.83
2023-03-19T06:19:00.790Z,10.91
2023-03-19T06:21:29.807Z,10.83
2023-03-19T06:23:56.767Z,10.90
2023-03-19T06:26:24.254Z,11.03
2023-03-19T06:28:51.158Z,11.16
2023-03-19T06:31:18.026Z,11.22
2023-03-19T06:33:44.823Z,11.28
2023-03-19T06:36:11.601Z,11.25
2023-03-19T06:38:38.229Z,11.14
2023-03-19T06:41:04.986Z,11.12
2023-03-19T06:43:31.964Z,11.13
2023-03-19T06:45:58.542Z,11.19
2023-03-19T06:48:25.159Z,11.19
2023-03-19T06:50:51.646Z,11.20
2023-03-19T06:53:18.174Z,11.37
2023-03-19T06:55:46.149Z,11.32
2023-03-19T06:58:12.903Z,11.42
2023-03-19T07:00:39.493Z,11.58
2023-03-19T07:03:07.454Z,11.65
2023-03-19T07:05:34.023Z,11.62
2023-03-19T07:08:00.743Z,11.69
2023-03-19T07:10:27.408Z,11.76
2023-03-19T07:12:54.249Z,11.69
2023-03-19T07:15:21.567Z,11.70
2023-03-19T07:17:49.032Z,11.84
2023-03-19T07:20:16.226Z,11.87
2023-03-19T07:22:42.781Z,11.90
2023-03-19T07:25:09.717Z,11.97
2023-03-19T07:27:36.193Z,12.11
2023-03-19T07:30:02.753Z,12.09
2023-03-19T07:32:29.300Z,12.22
2023-03-19T07:34:56.215Z,12.13
2023-03-19T07:37:22.791Z,12.21
2023-03-19T07:39:49.363Z,12.21
2023-03-19T07:42:15.898Z,12.23
2023-03-19T07:44:42.422Z,12.25
2023-03-19T07:47:22.450Z,12.23
2023-03-19T07:49:52.821Z,12.22
2023-03-19T07:52:19.292Z,12.30
2023-03-19T07:54:46.017Z,12.45
2023-03-19T07:57:12.611Z,12.44
2023-03-19T07:59:39.086Z,12.45
2023-03-19T08:02:06.489Z,12.53
2023-03-19T08:04:33.136Z,12.45
2023-03-19T08:07:00.643Z,12.59
2023-03-19T08:09:27.591Z,12.54
2023-03-19T08:11:54.088Z,12.65
2023-03-19T08:14:22.505Z,12.91
2023-03-19T08:16:49.497Z,12.94
2023-03-19T08:19:16.836Z,13.05
2023-03-19T08:21:43.450Z,13.20
2023-03-19T08:24:09.975Z,13.60
2023-03-19T08:26:37.598Z,13.86
2023-03-19T08:29:04.454Z,14.14
2023-03-19T08:31:31.113Z,14.38
2023-03-19T08:34:00.192Z,14.38
2023-03-19T08:36:27.545Z,14.21
2023-03-19T08:38:54.923Z,14.27
2023-03-19T08:41:22.242Z,14.12
2023-03-19T08:43:49.076Z,14.13
2023-03-19T08:46:16.387Z,14.33
2023-03-19T08:48:43.503Z,14.09
2023-03-19T08:51:10.803Z,14.23
2023-03-19T08:53:37.742Z,13.98
2023-03-19T08:56:07.892Z,13.93
2023-03-19T08:58:34.888Z,14.02
2023-03-19T09:01:07.243Z,14.26
2023-03-19T09:03:33.777Z,14.36
2023-03-19T09:06:05.804Z,14.38
2023-03-19T09:08:33.185Z,14.39
2023-03-19T09:11:00.177Z,14.63
2023-03-19T09:13:27.222Z,14.84
2023-03-19T09:15:53.989Z,14.95
2023-03-19T09:18:20.931Z,15.25
2023-03-19T09:20:47.757Z,15.11
2023-03-19T09:23:14.222Z,15.27
2023-03-19T09:25:40.715Z,15.21
2023-03-19T09:28:07.217Z,15.61
2023-03-19T09:30:33.679Z,15.80
2023-03-19T09:33:00.504Z,15.90
2023-03-19T09:35:31.208Z,15.86
2023-03-19T09:37:58.824Z,15.97
2023-03-19T09:40:30.174Z,15.90
2023-03-19T09:43:15.670Z,15.71
2023-03-19T09:45:42.313Z,15.75
2023-03-19T09:48:32.471Z,15.91
2023-03-19T09:51:00.651Z,15.85
2023-03-19T09:53:29.863Z,15.84
2023-03-19T09:55:59.649Z,15.97
2023-03-19T09:58:32.950Z,16.16
2023-03-19T10:01:01.125Z,16.33
2023-03-19T10:04:06.763Z,16.61
2023-03-19T10:06:40.265Z,16.58
2023-03-19T10:09:16.898Z,16.67
2023-03-19T10:12:40.103Z,16.52
2023-03-19T10:15:31.101Z,16.51
2023-03-19T10:18:04.143Z,16.84
2023-03-19T10:21:05.690Z,17.27
2023-03-19T10:23:45.705Z,17.50
2023-03-19T10:26:16.540Z,17.85
2023-03-19T10:28:46.571Z,17.81
2023-03-19T10:31:18.268Z,17.65
2023-03-19T10:34:13.065Z,17.59
2023-03-19T10:36:39.645Z,17.64
2023-03-19T10:39:07.842Z,17.21
2023-03-19T10:41:43.140Z,17.25
2023-03-19T10:44:25.527Z,17.38
2023-03-19T10:46:52.019Z,17.57
2023-03-19T10:49:18.503Z,17.87
2023-03-19T10:51:48.830Z,17.68
2023-03-19T10:54:21.661Z,17.45
2023-03-19T10:56:49.380Z,17.47
2023-03-19T10:59:31.140Z,17.09
2023-03-19T11:02:01.102Z,17.23
2023-03-19T11:04:29.716Z,17.25
2023-03-19T11:07:03.513Z,17.45
2023-03-19T11:09:35.078Z,17.69
2023-03-19T11:12:28.022Z,17.69
2023-03-19T11:14:57.692Z,17.30
2023-03-19T11:17:38.694Z,17.44
2023-03-19T11:20:11.475Z,17.65
2023-03-19T11:22:39.721Z,17.85
2023-03-19T11:25:25.719Z,17.85
2023-03-19T11:28:12.172Z,17.83
2023-03-19T11:31:08.121Z,17.87
2023-03-19T11:33:58.827Z,17.74
2023-03-19T11:36:28.149Z,17.56
2023-03-19T11:39:00.762Z,17.57
2023-03-19T11:41:36.715Z,17.32
2023-03-19T11:44:10.739Z,17.17
2023-03-19T11:46:59.052Z,17.20
2023-03-19T11:49:42.733Z,17.02
2023-03-19T11:52:28.627Z,16.67
2023-03-19T11:55:02.403Z,16.80
2023-03-19T11:57:51.677Z,16.73
2023-03-19T12:00:36.516Z,16.61
2023-03-19T12:03:25.481Z,16.54
2023-03-19T12:06:19.315Z,16.44
2023-03-19T12:08:55.838Z,16.17
2023-03-19T12:11:37.516Z,16.16
2023-03-19T12:14:30.355Z,15.85
2023-03-19T12:17:15.497Z,15.87
2023-03-19T12:20:17.771Z,15.91
2023-03-19T12:23:21.689Z,15.90
2023-03-19T12:25:48.297Z,15.85
2023-03-19T12:28:25.044Z,15.90
2023-03-19T12:31:00.989Z,15.85
2023-03-19T12:33:43.680Z,15.84
2023-03-19T12:36:18.344Z,15.57
2023-03-19T12:38:50.930Z,15.47
2023-03-19T12:41:26.079Z,15.40
2023-03-19T12:44:09.615Z,15.45
2023-03-19T12:46:36.293Z,15.14
2023-03-19T12:49:13.305Z,14.91
2023-03-19T12:51:45.535Z,14.99
2023-03-19T12:54:21.301Z,15.04
2023-03-19T12:57:07.100Z,15.01
2023-03-19T12:59:44.552Z,14.92
2023-03-19T13:02:56.232Z,15.02
2023-03-19T13:06:08.667Z,15.01
2023-03-19T13:08:54.258Z,15.05
2023-03-19T13:11:44.597Z,15.22
2023-03-19T13:14:26.888Z,15.36
2023-03-19T13:17:07.398Z,15.41
2023-03-19T13:19:54.147Z,15.48
2023-03-19T13:22:34.395Z,15.30
2023-03-19T13:25:03.063Z,15.75
2023-03-19T13:27:35.837Z,15.69
2023-03-19T13:30:11.355Z,15.47
2023-03-19T13:32:42.281Z,15.29
2023-03-19T13:35:27.596Z,15.48
2023-03-19T13:38:04.633Z,15.28
2023-03-19T13:40:38.688Z,15.27
2023-03-19T13:43:28.026Z,15.41
2023-03-19T13:46:04.779Z,15.27
2023-03-19T13:49:16.228Z,15.21
2023-03-19T13:51:42.826Z,15.23
2023-03-19T13:54:12.806Z,15.11
2023-03-19T13:57:01.240Z,15.00
2023-03-19T13:59:30.366Z,14.82
2023-03-19T14:01:58.450Z,14.80
2023-03-19T14:04:32.675Z,14.79
2023-03-19T14:07:40.428Z,14.65
2023-03-19T14:10:22.949Z,14.51
2023-03-19T14:12:50.364Z,14.29
2023-03-19T14:15:22.536Z,13.59
2023-03-19T14:18:00.547Z,12.76
2023-03-19T14:20:39.254Z,12.48
2023-03-19T14:23:10.761Z,12.51
2023-03-19T14:26:12.714Z,12.31
2023-03-19T14:29:06.103Z,12.23
2023-03-19T14:31:38.694Z,12.28
2023-03-19T14:34:11.087Z,12.39
2023-03-19T14:37:11.742Z,12.51
2023-03-19T14:39:43.925Z,12.43
2023-03-19T14:42:21.250Z,12.47
2023-03-19T14:45:14.186Z,12.43
2023-03-19T14:48:07.430Z,12.33
2023-03-19T14:50:49.942Z,12.23
2023-03-19T14:53:24.708Z,12.37
2023-03-19T14:55:53.309Z,12.64
2023-03-19T14:58:20.831Z,12.89
2023-03-19T15:00:51.226Z,13.09
2023-03-19T15:03:20.917Z,13.34
2023-03-19T15:05:52.540Z,13.75
2023-03-19T15:08:23.205Z,13.88
2023-03-19T15:11:08.562Z,13.86
2023-03-19T15:13:48.671Z,13.78
2023-03-19T15:16:39.075Z,14.00
2023-03-19T15:19:12.433Z,13.99
2023-03-19T15:21:39.185Z,13.96
2023-03-19T15:24:07.251Z,14.09
2023-03-19T15:26:36.569Z,14.07
2023-03-19T15:29:04.477Z,13.98
2023-03-19T15:31:52.710Z,14.07
2023-03-19T15:34:29.740Z,13.84
2023-03-19T15:37:15.427Z,13.65
2023-03-19T15:39:47.671Z,13.66
2023-03-19T15:42:16.825Z,13.63
2023-03-19T15:44:50.873Z,13.68
2023-03-19T15:47:21.968Z,13.53
2023-03-19T15:49:59.948Z,13.37
2023-03-19T15:52:31.110Z,13.24
2023-03-19T15:55:00.787Z,13.21
2023-03-19T15:57:28.848Z,13.28
2023-03-19T15:59:56.433Z,13.26
2023-03-19T16:02:28.514Z,13.27
2023-03-19T16:05:20.363Z,13.26
2023-03-19T16:07:43.697Z,13.16
2023-03-19T16:10:31.400Z,12.83
2023-03-19T16:13:03.851Z,12.57
2023-03-19T16:15:39.760Z,12.62
2023-03-19T16:18:22.158Z,12.60
2023-03-19T16:21:01.669Z,12.58
2023-03-19T16:23:35.461Z,12.36
2023-03-19T16:26:37.472Z,12.19
2023-03-19T16:29:25.553Z,12.01
2023-03-19T16:31:58.087Z,11.93
2023-03-19T16:34:36.613Z,11.87
2023-03-19T16:37:41.076Z,11.86
2023-03-19T16:40:13.522Z,11.81
2023-03-19T16:42:41.591Z,11.90
2023-03-19T16:45:17.178Z,11.80
2023-03-19T16:47:48.598Z,11.70
2023-03-19T16:50:16.473Z,11.76
2023-03-19T16:52:44.823Z,11.65
2023-03-19T16:55:32.734Z,11.61
2023-03-19T16:58:02.118Z,11.46
2023-03-19T17:00:32.075Z,11.51
2023-03-19T17:02:59.074Z,11.37
2023-03-19T17:05:26.938Z,11.35
2023-03-19T17:07:57.253Z,11.32
2023-03-19T17:10:27.384Z,11.28
2023-03-19T17:12:56.303Z,11.32
2023-03-19T17:15:43.316Z,11.21
2023-03-19T17:18:17.286Z,11.11
2023-03-19T17:20:57.548Z,11.26
2023-03-19T17:23:26.980Z,11.23
2023-03-19T17:25:54.336Z,11.20
2023-03-19T17:28:20.986Z,11.13
2023-03-19T17:30:47.814Z,11.26
2023-03-19T17:33:34.705Z,11.27
2023-03-19T17:36:01.597Z,11.12
2023-03-19T17:38:33.434Z,11.02
2023-03-19T17:41:00.065Z,10.94
2023-03-19T17:43:26.609Z,10.92
2023-03-19T17:45:55.024Z,11.02
2023-03-19T17:48:25.389Z,11.11
2023-03-19T17:50:53.656Z,11.04
2023-03-19T17:53:20.317Z,10.94
2023-03-19T17:55:47.131Z,10.70
2023-03-19T17:58:22.598Z,10.45
2023-03-19T18:00:51.470Z,10.38
2023-03-19T18:03:21.924Z,10.30
2023-03-19T18:05:50.594Z,10.22
2023-03-19T18:08:20.118Z,10.19
2023-03-19T18:10:47.114Z,10.16
2023-03-19T18:13:13.660Z,10.27
2023-03-19T18:15:42.651Z,10.28
2023-03-19T18:18:21.594Z,10.29
2023-03-19T18:20:48.667Z,10.39
2023-03-19T18:23:18.367Z,10.47
2023-03-19T18:25:45.896Z,10.47
2023-03-19T18:28:12.822Z,10.51
2023-03-19T18:30:41.399Z,10.41
2023-03-19T18:33:14.994Z,10.42
2023-03-19T18:35:44.996Z,10.76
2023-03-19T18:38:17.937Z,10.71
2023-03-19T18:40:45.945Z,10.73
2023-03-19T18:43:15.832Z,10.64
2023-03-19T18:45:44.567Z,10.82
2023-03-19T18:48:32.915Z,10.51
2023-03-19T18:50:59.744Z,10.47
2023-03-19T18:53:26.609Z,10.59
2023-03-19T18:55:53.242Z,10.58
2023-03-19T18:58:28.868Z,10.52
2023-03-19T19:00:55.735Z,10.45
2023-03-19T19:03:29.552Z,10.39
2023-03-19T19:05:56.618Z,10.55
2023-03-19T19:08:25.236Z,10.54
2023-03-19T19:10:56.680Z,10.55
2023-03-19T19:13:28.448Z,10.42
2023-03-19T19:15:55.273Z,10.29
2023-03-19T19:18:24.636Z,10.30
2023-03-19T19:20:52.879Z,10.22
2023-03-19T19:23:20.353Z,10.19
2023-03-19T19:25:50.972Z,10.11
2023-03-19T19:28:27.805Z,10.37
2023-03-19T19:30:57.466Z,10.68
2023-03-19T19:33:28.025Z,10.43
2023-03-19T19:35:55.529Z,10.25
2023-03-19T19:38:22.034Z,10.17
2023-03-19T19:40:51.566Z,10.36
2023-03-19T19:43:21.498Z,10.37
2023-03-19T19:45:50.300Z,10.25
2023-03-19T19:48:22.684Z,10.26
2023-03-19T19:50:49.416Z,10.35
2023-03-19T19:53:18.339Z,10.37
2023-03-19T19:55:45.650Z,10.29
2023-03-19T19:58:24.536Z,10.16
2023-03-19T20:01:02.716Z,10.26
2023-03-19T20:03:32.813Z,10.11
2023-03-19T20:06:01.488Z,9.96
2023-03-19T20:08:28.775Z,10.07
2023-03-19T20:10:56.122Z,9.99
2023-03-19T20:13:34.030Z,9.96
2023-03-19T20:16:02.006Z,10.00
2023-03-19T20:18:32.071Z,10.01
2023-03-19T20:20:59.672Z,9.97
2023-03-19T20:23:26.646Z,10.07
2023-03-19T20:25:53.378Z,10.08
2023-03-19T20:28:26.423Z,10.00
2023-03-19T20:30:54.282Z,9.97
2023-03-19T20:33:21.680Z,9.81
2023-03-19T20:35:48.638Z,9.78
2023-03-19T20:38:15.449Z,9.72
2023-03-19T20:40:56.815Z,9.75
2023-03-19T20:43:28.181Z,9.78
2023-03-19T20:45:59.569Z,9.93
2023-03-19T20:48:27.242Z,10.00
2023-03-19T20:50:54.652Z,9.88
2023-03-19T20:53:21.600Z,9.90
2023-03-19T20:55:49.196Z,9.94
2023-03-19T20:58:24.025Z,9.64
2023-03-19T21:00:51.025Z,9.59
2023-03-19T21:03:20.520Z,9.59
2023-03-19T21:05:47.162Z,9.59
2023-03-19T21:08:20.581Z,9.73
2023-03-19T21:10:48.311Z,9.63
2023-03-19T21:13:17.805Z,9.64
2023-03-19T21:15:49.697Z,9.65
2023-03-19T21:18:17.065Z,9.59
2023-03-19T21:20:46.212Z,9.41
2023-03-19T21:23:18.578Z,9.47
2023-03-19T21:25:46.287Z,9.38
2023-03-19T21:28:35.535Z,9.46
2023-03-19T21:31:02.385Z,9.26
2023-03-19T21:33:34.210Z,9.06
2023-03-19T21:36:03.024Z,9.12
2023-03-19T21:38:32.293Z,9.10
2023-03-19T21:41:01.519Z,9.05
2023-03-19T21:43:35.336Z,9.03
2023-03-19T21:46:13.927Z,9.07
2023-03-19T21:48:44.396Z,8.88
2023-03-19T21:51:16.351Z,9.13
2023-03-19T21:53:43.835Z,9.27
2023-03-19T21:56:23.314Z,8.96
2023-03-19T21:58:52.169Z,8.75
2023-03-19T22:01:22.489Z,8.87
2023-03-19T22:03:49.792Z,8.67
2023-03-19T22:06:17.123Z,8.74
2023-03-19T22:08:48.633Z,8.75
2023-03-19T22:11:26.083Z,8.84
2023-03-19T22:13:53.422Z,8.79
2023-03-19T22:16:23.890Z,8.91
2023-03-19T22:18:52.200Z,8.98
2023-03-19T22:21:21.656Z,8.79
2023-03-19T22:23:48.828Z,8.60
2023-03-19T22:26:27.615Z,8.64
2023-03-19T22:28:54.947Z,8.83
2023-03-19T22:31:22.354Z,8.86
2023-03-19T22:33:49.154Z,8.71
2023-03-19T22:36:15.859Z,8.82
2023-03-19T22:38:44.815Z,8.79
2023-03-19T22:41:14.650Z,8.79
2023-03-19T22:43:41.625Z,8.76
2023-03-19T22:46:12.113Z,8.69
2023-03-19T22:48:38.846Z,8.81
2023-03-19T22:51:06.058Z,8.87
2023-03-19T22:53:36.962Z,8.94
2023-03-19T22:56:04.637Z,8.97
2023-03-19T22:58:31.153Z,8.98
2023-03-19T23:00:57.925Z,9.06
2023-03-19T23:03:28.228Z,8.97
2023-03-19T23:05:58.297Z,8.94
2023-03-19T23:08:24.794Z,8.71
2023-03-19T23:10:51.879Z,8.85
2023-03-19T23:13:18.433Z,8.95
2023-03-19T23:15:45.652Z,8.98
2023-03-19T23:18:19.362Z,9.00
2023-03-19T23:20:46.583Z,8.98
2023-03-19T23:23:16.656Z,9.02
2023-03-19T23:25:45.034Z,9.19
2023-03-19T23:28:23.850Z,9.18
2023-03-19T23:30:51.539Z,9.16
2023-03-19T23:33:19.766Z,9.10
2023-03-19T23:35:47.362Z,9.14
2023-03-19T23:38:14.510Z,9.06
2023-03-19T23:40:44.146Z,9.09
2023-03-19T23:43:22.011Z,9.35
2023-03-19T23:45:50.133Z,9.42
2023-03-19T23:48:29.175Z,9.27
2023-03-19T23:50:55.642Z,9.36
2023-03-19T23:53:27.700Z,9.38
2023-03-19T23:55:59.015Z,9.37
2023-03-19T23:58:39.546Z,9.36
